Terminal Aerodrome Forecast
Issued by NWS

Home | Current Version | Previous Version | Text Only | Print | Product List | Glossary On
Versions: 1 2 3 4 5 6 7 8 9 10 11 12 13 14 15 16 17
000
FTUS43 KDLH 201140
TAFHYR
TAF
KHYR 201140Z 2012/2112 14010G16KT P6SM FEW040 OVC250
     FM201500 15008KT P6SM OVC130
     FM201700 15010G18KT P6SM VCSH OVC070
     FM201800 15010G20KT 5SM SHRA OVC050
     FM202000 15010G20KT 2SM SHRA OVC010
     FM202100 16009KT 2SM SHRA VCTS OVC008CB WS020/17040KT
     FM202300 18008KT 3SM SHRA VCTS OVC003CB
     FM210200 22007KT P6SM VCSH OVC008
     FM210300 23006KT P6SM VCSH BKN003
     FM210500 26005KT P6SM BKN008=

USA.gov is the U.S. government's official web portal to all federal, state and local government web resources and services.